Time;durP1;ratioP1;P1;durP2;ratioP2;P2;SDS_P1;SDS_P2;PMS_P1;PMS_P2;Temp;Humidity;BMP_temperature;BMP_pressure;BME280_temperature;BME280_humidity;BME280_pressure;Samples;Min_cycle;Max_cycle;Signal;HPM_P1;HPM_P2
2024/01/19 00:00:41;;;;;;;37.90;20.90;;;;;;;;;;5113477;28;20295;-86
2024/01/19 00:03:08;;;;;;;42.03;23.80;;;;;;;;;;5112831;28;20294;-86
2024/01/19 00:05:35;;;;;;;33.27;20.30;;;;;;;;;;5112882;28;20646;-86
2024/01/19 00:08:03;;;;;;;33.47;19.73;;;;;;;;;;5113420;28;20224;-86
2024/01/19 00:10:32;;;;;;;33.77;20.67;;;;;;;;;;5114232;28;20545;-87
2024/01/19 00:13:00;;;;;;;30.47;18.20;;;;;;;;;;5112826;28;20254;-86
2024/01/19 00:15:27;;;;;;;29.97;19.50;;;;;;;;;;5113570;28;20327;-86
2024/01/19 00:17:54;;;;;;;31.73;18.97;;;;;;;;;;5113402;28;20185;-86
2024/01/19 00:20:23;;;;;;;33.63;19.27;;;;;;;;;;5113117;28;20621;-86
2024/01/19 00:22:50;;;;;;;29.83;18.70;;;;;;;;;;5113422;28;20186;-86
2024/01/19 00:25:17;;;;;;;33.57;19.27;;;;;;;;;;5113055;28;20234;-86
2024/01/19 00:27:46;;;;;;;30.17;19.07;;;;;;;;;;5113791;28;20197;-86
2024/01/19 00:30:14;;;;;;;32.40;19.07;;;;;;;;;;5113441;28;20630;-87
2024/01/19 00:32:41;;;;;;;31.50;19.10;;;;;;;;;;5113707;28;20645;-86
2024/01/19 00:35:09;;;;;;;29.40;18.43;;;;;;;;;;5113110;28;20225;-86
2024/01/19 00:37:36;;;;;;;30.40;19.57;;;;;;;;;;5113323;28;20716;-86
2024/01/19 00:40:11;;;;;;;33.10;19.27;;;;;;;;;;5113150;28;20227;-86
2024/01/19 00:42:38;;;;;;;30.13;17.83;;;;;;;;;;5112488;28;20204;-86
2024/01/19 00:45:08;;;;;;;30.10;18.60;;;;;;;;;;5113034;28;20297;-86
2024/01/19 00:47:35;;;;;;;35.13;19.40;;;;;;;;;;5113600;28;20663;-86
2024/01/19 00:50:03;;;;;;;36.17;21.33;;;;;;;;;;5113451;28;20198;-86
2024/01/19 00:52:30;;;;;;;35.57;20.07;;;;;;;;;;5113484;28;20228;-86
2024/01/19 00:54:57;;;;;;;32.03;19.40;;;;;;;;;;5113173;28;20319;-87
2024/01/19 00:57:24;;;;;;;31.60;19.30;;;;;;;;;;5113209;28;20284;-86
2024/01/19 00:59:52;;;;;;;29.17;18.20;;;;;;;;;;5113222;28;20213;-86
2024/01/19 01:02:20;;;;;;;29.67;17.53;;;;;;;;;;5113035;28;20240;-86
2024/01/19 01:04:47;;;;;;;30.77;17.17;;;;;;;;;;5112520;28;20691;-85
2024/01/19 01:07:15;;;;;;;29.60;16.83;;;;;;;;;;5112723;28;20224;-86
2024/01/19 01:09:42;;;;;;;27.17;16.77;;;;;;;;;;5113365;28;20278;-86
2024/01/19 01:12:09;;;;;;;26.03;16.50;;;;;;;;;;5112646;28;20262;-84
2024/01/19 01:14:36;;;;;;;25.83;15.37;;;;;;;;;;5113321;28;20258;-86
2024/01/19 01:17:04;;;;;;;30.73;16.60;;;;;;;;;;5116463;28;20220;-85
2024/01/19 01:19:32;;;;;;;28.10;15.87;;;;;;;;;;5116382;28;20200;-85
2024/01/19 01:22:00;;;;;;;27.63;16.13;;;;;;;;;;5116593;28;20572;-86
2024/01/19 01:24:27;;;;;;;29.47;16.80;;;;;;;;;;5116977;28;20231;-85
2024/01/19 01:26:54;;;;;;;24.67;15.30;;;;;;;;;;5116629;28;20481;-86
2024/01/19 01:29:21;;;;;;;28.40;15.73;;;;;;;;;;5116548;28;20196;-86
2024/01/19 01:31:50;;;;;;;25.13;15.37;;;;;;;;;;5116772;28;20235;-86
2024/01/19 01:34:17;;;;;;;27.87;15.77;;;;;;;;;;5116025;28;20187;-86
2024/01/19 01:36:46;;;;;;;23.63;14.67;;;;;;;;;;5116135;27;20201;-85
2024/01/19 01:39:13;;;;;;;24.37;14.57;;;;;;;;;;5116439;28;20284;-86
2024/01/19 01:41:41;;;;;;;22.03;14.03;;;;;;;;;;5116584;28;20287;-86
2024/01/19 01:44:08;;;;;;;22.03;14.17;;;;;;;;;;5116234;28;20201;-85
2024/01/19 01:46:36;;;;;;;22.60;14.70;;;;;;;;;;5115860;28;20287;-86
2024/01/19 01:49:03;;;;;;;27.87;15.57;;;;;;;;;;5116293;28;20203;-85
2024/01/19 01:51:31;;;;;;;24.30;15.80;;;;;;;;;;5116319;28;20568;-86
2024/01/19 01:54:00;;;;;;;29.13;15.80;;;;;;;;;;5116138;28;20250;-84
2024/01/19 01:56:28;;;;;;;26.50;15.60;;;;;;;;;;5115892;28;20323;-86
2024/01/19 01:58:55;;;;;;;26.50;15.37;;;;;;;;;;5115940;28;20198;-85
2024/01/19 02:01:22;;;;;;;25.57;15.03;;;;;;;;;;5115855;28;20210;-86
2024/01/19 02:03:50;;;;;;;21.97;14.30;;;;;;;;;;5116036;28;20594;-86
2024/01/19 02:06:17;;;;;;;26.83;15.47;;;;;;;;;;5115936;28;20204;-85
2024/01/19 02:08:45;;;;;;;23.27;14.47;;;;;;;;;;5116224;28;20262;-85
2024/01/19 02:11:13;;;;;;;21.97;14.37;;;;;;;;;;5116056;28;20261;-86
2024/01/19 02:13:41;;;;;;;23.70;14.70;;;;;;;;;;5115680;28;20318;-86
2024/01/19 02:16:08;;;;;;;23.07;14.87;;;;;;;;;;5115039;28;20579;-86
2024/01/19 02:18:35;;;;;;;22.97;14.97;;;;;;;;;;5115723;28;20273;-86
2024/01/19 02:21:03;;;;;;;23.40;14.50;;;;;;;;;;5115822;27;20196;-85
2024/01/19 02:23:31;;;;;;;23.07;14.43;;;;;;;;;;5115411;28;20343;-85
2024/01/19 02:26:00;;;;;;;20.90;13.93;;;;;;;;;;5114708;28;20204;-86
2024/01/19 02:28:28;;;;;;;23.47;13.77;;;;;;;;;;5115014;28;20283;-85
2024/01/19 02:30:55;;;;;;;22.43;14.60;;;;;;;;;;5115430;28;20222;-85
2024/01/19 02:33:22;;;;;;;22.40;14.50;;;;;;;;;;5114001;28;20290;-85
2024/01/19 02:35:50;;;;;;;23.87;14.87;;;;;;;;;;5115092;28;20281;-86
2024/01/19 02:38:17;;;;;;;23.70;14.97;;;;;;;;;;5115478;28;20674;-86
2024/01/19 02:40:44;;;;;;;22.13;14.43;;;;;;;;;;5115079;28;20204;-86
2024/01/19 02:43:13;;;;;;;21.43;14.10;;;;;;;;;;5115381;28;20197;-85
2024/01/19 02:45:40;;;;;;;25.00;14.87;;;;;;;;;;5114769;28;20642;-86
2024/01/19 02:48:09;;;;;;;20.63;13.53;;;;;;;;;;5115262;28;20326;-86
2024/01/19 02:50:36;;;;;;;18.90;13.77;;;;;;;;;;5115423;28;20202;-86
2024/01/19 02:53:04;;;;;;;19.57;13.00;;;;;;;;;;5115050;28;20200;-86
2024/01/19 02:55:31;;;;;;;21.20;13.07;;;;;;;;;;5114863;28;20264;-86
2024/01/19 02:57:58;;;;;;;19.40;13.13;;;;;;;;;;5111148;28;20307;-84
2024/01/19 03:00:27;;;;;;;19.00;12.40;;;;;;;;;;5094160;28;20355;-87
2024/01/19 03:02:54;;;;;;;19.77;13.03;;;;;;;;;;5112414;28;20273;-86
2024/01/19 03:05:21;;;;;;;18.70;12.37;;;;;;;;;;5115038;28;20257;-86
2024/01/19 03:07:48;;;;;;;20.73;12.20;;;;;;;;;;5114981;28;20243;-85
2024/01/19 03:10:16;;;;;;;19.27;12.53;;;;;;;;;;5114775;28;20280;-86
2024/01/19 03:12:43;;;;;;;20.00;12.67;;;;;;;;;;5114509;28;20239;-86
2024/01/19 03:15:10;;;;;;;21.50;13.40;;;;;;;;;;5114306;28;20278;-86
2024/01/19 03:17:39;;;;;;;20.20;13.47;;;;;;;;;;5114683;28;20238;-86
2024/01/19 03:20:06;;;;;;;21.37;13.57;;;;;;;;;;5114269;28;20657;-84
2024/01/19 03:22:33;;;;;;;21.63;13.97;;;;;;;;;;5114263;28;20218;-86
2024/01/19 03:25:01;;;;;;;18.53;12.73;;;;;;;;;;5114855;28;20273;-85
2024/01/19 03:27:28;;;;;;;21.37;14.00;;;;;;;;;;5114953;28;20198;-86
2024/01/19 03:29:56;;;;;;;21.67;13.60;;;;;;;;;;5113957;28;20198;-86
2024/01/19 03:32:24;;;;;;;21.17;14.50;;;;;;;;;;5114545;28;20209;-87
2024/01/19 03:34:52;;;;;;;21.17;14.20;;;;;;;;;;5114642;28;20188;-86
2024/01/19 03:37:20;;;;;;;23.57;14.27;;;;;;;;;;5113809;28;20222;-85
2024/01/19 03:39:47;;;;;;;20.23;13.03;;;;;;;;;;5113855;28;20202;-85
2024/01/19 03:42:14;;;;;;;23.93;14.93;;;;;;;;;;5113546;28;20206;-85
2024/01/19 03:44:42;;;;;;;21.60;14.53;;;;;;;;;;5113332;28;20197;-85
2024/01/19 03:47:10;;;;;;;19.60;13.83;;;;;;;;;;5113827;28;20199;-85
2024/01/19 03:49:37;;;;;;;23.87;15.07;;;;;;;;;;5113748;28;20637;-85
2024/01/19 03:52:07;;;;;;;23.40;14.23;;;;;;;;;;5113388;28;20225;-86
2024/01/19 03:54:34;;;;;;;20.73;14.07;;;;;;;;;;5113937;28;20280;-86
2024/01/19 03:57:02;;;;;;;21.80;14.53;;;;;;;;;;5112919;28;20793;-85
2024/01/19 03:59:30;;;;;;;23.40;14.67;;;;;;;;;;5113836;28;20203;-86
2024/01/19 04:01:57;;;;;;;22.33;14.27;;;;;;;;;;5113533;28;20198;-87
2024/01/19 04:04:25;;;;;;;20.87;14.40;;;;;;;;;;5113864;28;20654;-86
2024/01/19 04:06:53;;;;;;;22.17;14.67;;;;;;;;;;5113863;28;20215;-85
2024/01/19 04:09:22;;;;;;;22.27;14.30;;;;;;;;;;5113300;28;20195;-85
2024/01/19 04:11:49;;;;;;;23.53;15.00;;;;;;;;;;5113177;28;20218;-84
2024/01/19 04:14:16;;;;;;;21.60;14.57;;;;;;;;;;5113382;28;20271;-86
2024/01/19 04:16:44;;;;;;;23.00;14.40;;;;;;;;;;5113179;28;20255;-86
2024/01/19 04:19:11;;;;;;;23.07;14.43;;;;;;;;;;5113733;28;20182;-86
2024/01/19 04:21:38;;;;;;;21.83;14.10;;;;;;;;;;5112844;28;20238;-86
2024/01/19 04:24:05;;;;;;;25.73;14.33;;;;;;;;;;5112384;28;20588;-85
2024/01/19 04:26:34;;;;;;;22.63;14.60;;;;;;;;;;5112141;28;20257;-86
2024/01/19 04:29:01;;;;;;;23.67;14.97;;;;;;;;;;5112238;28;20306;-86
2024/01/19 04:31:29;;;;;;;21.67;14.23;;;;;;;;;;5112387;28;20197;-87
2024/01/19 04:33:56;;;;;;;20.50;13.80;;;;;;;;;;5113212;28;20597;-86
2024/01/19 04:36:23;;;;;;;21.70;14.00;;;;;;;;;;5112930;28;20655;-86
2024/01/19 04:38:51;;;;;;;22.37;14.17;;;;;;;;;;5113587;28;20279;-86
2024/01/19 04:41:19;;;;;;;22.33;14.33;;;;;;;;;;5112989;28;20198;-86
2024/01/19 04:43:47;;;;;;;19.80;13.30;;;;;;;;;;5113124;28;20198;-85
2024/01/19 04:46:15;;;;;;;24.07;14.67;;;;;;;;;;5113220;28;20191;-85
2024/01/19 04:48:42;;;;;;;22.60;14.30;;;;;;;;;;5113151;28;20658;-86
2024/01/19 04:51:09;;;;;;;21.43;13.40;;;;;;;;;;5115991;28;20203;-85
2024/01/19 04:53:36;;;;;;;23.43;15.03;;;;;;;;;;5117741;28;20199;-85
2024/01/19 04:56:06;;;;;;;23.37;13.83;;;;;;;;;;5117262;28;20312;-86
2024/01/19 04:58:33;;;;;;;21.43;13.53;;;;;;;;;;5117203;28;20202;-86
2024/01/19 05:01:03;;;;;;;24.10;14.40;;;;;;;;;;5117581;27;20228;-86
2024/01/19 05:03:30;;;;;;;22.90;14.20;;;;;;;;;;5116054;28;20638;-86
2024/01/19 05:05:57;;;;;;;21.67;14.00;;;;;;;;;;5117499;28;20655;-86
2024/01/19 05:08:25;;;;;;;21.23;14.10;;;;;;;;;;5117080;28;20204;-85
2024/01/19 05:10:52;;;;;;;21.03;14.70;;;;;;;;;;5116904;27;20194;-86
2024/01/19 05:13:19;;;;;;;21.73;14.80;;;;;;;;;;5116652;28;20268;-86
2024/01/19 05:15:47;;;;;;;23.40;14.97;;;;;;;;;;5116899;28;20225;-86
2024/01/19 05:18:15;;;;;;;22.80;14.87;;;;;;;;;;5116941;28;20221;-86
2024/01/19 05:20:42;;;;;;;26.97;15.40;;;;;;;;;;5116883;28;20967;-85
2024/01/19 05:23:10;;;;;;;23.23;14.37;;;;;;;;;;5116902;28;20304;-85
2024/01/19 05:25:37;;;;;;;24.87;14.60;;;;;;;;;;5116903;28;20259;-86
2024/01/19 05:28:04;;;;;;;23.03;14.77;;;;;;;;;;5116753;28;20242;-86
2024/01/19 05:30:32;;;;;;;23.90;15.10;;;;;;;;;;5116423;28;20221;-86
2024/01/19 05:32:59;;;;;;;26.40;14.70;;;;;;;;;;5116838;27;20559;-85
2024/01/19 05:35:27;;;;;;;23.17;14.60;;;;;;;;;;5116751;28;20202;-87
2024/01/19 05:37:54;;;;;;;21.77;14.53;;;;;;;;;;5116296;28;20648;-85
2024/01/19 05:40:22;;;;;;;21.20;13.93;;;;;;;;;;5116128;28;20574;-86
2024/01/19 05:42:49;;;;;;;22.10;14.60;;;;;;;;;;5116038;28;20217;-85
2024/01/19 05:45:16;;;;;;;23.23;15.60;;;;;;;;;;5116143;28;20553;-85
2024/01/19 05:47:44;;;;;;;22.40;14.47;;;;;;;;;;5116254;28;20250;-86
2024/01/19 05:50:10;;;;;;;23.83;14.90;;;;;;;;;;5115888;28;20808;-84
2024/01/19 05:52:39;;;;;;;20.17;13.80;;;;;;;;;;5115984;28;20198;-85
2024/01/19 05:55:06;;;;;;;21.83;14.27;;;;;;;;;;5115535;28;20236;-85
2024/01/19 05:57:34;;;;;;;21.50;14.33;;;;;;;;;;5115547;28;20697;-85
2024/01/19 06:00:01;;;;;;;23.63;14.80;;;;;;;;;;5115616;28;20191;-86
2024/01/19 06:02:28;;;;;;;22.83;13.87;;;;;;;;;;5113860;28;20194;-84
2024/01/19 06:04:55;;;;;;;24.43;15.27;;;;;;;;;;5115066;27;20620;-80
2024/01/19 06:07:23;;;;;;;24.90;15.57;;;;;;;;;;5114391;28;20230;-81
2024/01/19 06:09:52;;;;;;;24.33;15.83;;;;;;;;;;5114942;28;20195;-81
2024/01/19 06:12:19;;;;;;;23.93;15.17;;;;;;;;;;5114142;28;20316;-81
2024/01/19 06:14:46;;;;;;;22.50;15.03;;;;;;;;;;5114119;28;20194;-80
2024/01/19 06:17:15;;;;;;;22.53;15.37;;;;;;;;;;5113978;27;20214;-81
2024/01/19 06:19:43;;;;;;;22.37;14.97;;;;;;;;;;5114753;28;20195;-81
2024/01/19 06:22:10;;;;;;;37.37;20.80;;;;;;;;;;5113859;28;20237;-81
2024/01/19 06:24:37;;;;;;;29.80;17.77;;;;;;;;;;5114282;27;20228;-81
2024/01/19 06:27:06;;;;;;;28.90;16.87;;;;;;;;;;5114215;28;20228;-81
2024/01/19 06:29:33;;;;;;;26.60;16.40;;;;;;;;;;5113965;28;20243;-80
2024/01/19 06:32:00;;;;;;;25.50;16.40;;;;;;;;;;5114356;28;20194;-81
2024/01/19 06:34:28;;;;;;;24.50;15.67;;;;;;;;;;5113860;28;20280;-81
2024/01/19 06:36:55;;;;;;;23.40;15.87;;;;;;;;;;5111454;28;20702;-79
2024/01/19 06:39:23;;;;;;;22.77;15.73;;;;;;;;;;5111585;28;20390;-79
2024/01/19 06:41:50;;;;;;;25.57;15.87;;;;;;;;;;5113531;28;20225;-78
2024/01/19 06:44:19;;;;;;;21.73;15.07;;;;;;;;;;5111777;27;20727;-81
2024/01/19 06:46:46;;;;;;;22.50;15.43;;;;;;;;;;5102683;28;20206;-79
2024/01/19 06:49:13;;;;;;;27.70;16.13;;;;;;;;;;5093189;28;20282;-79
2024/01/19 06:51:41;;;;;;;23.60;15.83;;;;;;;;;;5093176;28;20283;-79
2024/01/19 06:54:08;;;;;;;25.53;15.97;;;;;;;;;;5092925;28;20663;-79
2024/01/19 06:56:35;;;;;;;25.03;16.47;;;;;;;;;;5092876;28;20317;-79
2024/01/19 06:59:02;;;;;;;24.50;16.10;;;;;;;;;;5093335;28;20743;-79
2024/01/19 07:01:31;;;;;;;27.80;15.93;;;;;;;;;;5093295;28;20192;-79
2024/01/19 07:03:58;;;;;;;25.70;15.83;;;;;;;;;;5093536;28;20581;-79
2024/01/19 07:06:25;;;;;;;25.47;16.60;;;;;;;;;;5091954;28;20705;-79
2024/01/19 07:08:53;;;;;;;26.37;17.53;;;;;;;;;;5093177;28;20279;-80
2024/01/19 07:11:20;;;;;;;27.70;18.00;;;;;;;;;;5093043;28;20195;-80
2024/01/19 07:13:47;;;;;;;26.00;17.77;;;;;;;;;;5092534;28;20715;-79
2024/01/19 07:16:14;;;;;;;26.60;18.93;;;;;;;;;;5092970;28;20290;-79
2024/01/19 07:18:43;;;;;;;30.47;20.20;;;;;;;;;;5092684;28;20248;-79
2024/01/19 07:21:10;;;;;;;28.37;19.80;;;;;;;;;;5092165;28;20238;-80
2024/01/19 07:23:37;;;;;;;28.53;17.47;;;;;;;;;;5092693;28;20291;-80
2024/01/19 07:26:04;;;;;;;26.00;16.20;;;;;;;;;;5092729;28;20228;-79
2024/01/19 07:28:32;;;;;;;26.03;16.67;;;;;;;;;;5092552;28;20222;-80
2024/01/19 07:30:59;;;;;;;26.07;17.43;;;;;;;;;;5092381;28;20659;-79
2024/01/19 07:33:26;;;;;;;24.60;16.67;;;;;;;;;;5093206;28;20194;-80
2024/01/19 07:35:55;;;;;;;28.63;17.67;;;;;;;;;;5093996;28;20746;-79
2024/01/19 07:38:22;;;;;;;29.73;18.60;;;;;;;;;;5112469;28;20258;-80
2024/01/19 07:40:49;;;;;;;36.13;22.40;;;;;;;;;;5112878;28;20202;-79
2024/01/19 07:43:16;;;;;;;35.13;22.03;;;;;;;;;;5112690;28;20280;-79
2024/01/19 07:45:44;;;;;;;48.00;26.13;;;;;;;;;;5112632;27;20202;-79
2024/01/19 07:48:11;;;;;;;57.87;30.90;;;;;;;;;;5112443;28;20193;-79
2024/01/19 07:50:38;;;;;;;51.10;26.90;;;;;;;;;;5112627;28;20754;-80
2024/01/19 07:53:06;;;;;;;46.50;27.03;;;;;;;;;;5112005;28;20280;-79
2024/01/19 07:55:34;;;;;;;51.47;27.20;;;;;;;;;;5112795;28;20498;-79
2024/01/19 07:58:02;;;;;;;47.00;26.50;;;;;;;;;;5112689;28;20649;-79
2024/01/19 08:00:29;;;;;;;41.07;24.10;;;;;;;;;;5112429;28;20198;-79
2024/01/19 08:02:56;;;;;;;39.37;22.60;;;;;;;;;;5112442;28;20284;-79
2024/01/19 08:05:24;;;;;;;36.50;21.90;;;;;;;;;;5112056;28;20247;-79
2024/01/19 08:07:52;;;;;;;32.93;20.87;;;;;;;;;;5112491;28;20224;-79
2024/01/19 08:10:21;;;;;;;34.50;20.70;;;;;;;;;;5112406;28;20190;-79
2024/01/19 08:12:48;;;;;;;29.40;20.13;;;;;;;;;;5112078;28;20253;-78
2024/01/19 08:15:15;;;;;;;32.33;19.90;;;;;;;;;;5112111;28;20273;-78
2024/01/19 08:17:42;;;;;;;28.60;18.43;;;;;;;;;;5112177;28;20329;-79
2024/01/19 08:20:11;;;;;;;28.70;19.07;;;;;;;;;;5112089;28;20195;-80
2024/01/19 08:22:38;;;;;;;29.03;18.83;;;;;;;;;;5112498;28;20587;-79
2024/01/19 08:25:05;;;;;;;28.97;18.77;;;;;;;;;;5111103;28;20227;-79
2024/01/19 08:27:34;;;;;;;31.87;19.67;;;;;;;;;;5112270;28;20285;-79
2024/01/19 08:30:01;;;;;;;28.87;19.93;;;;;;;;;;5111926;28;20681;-79
2024/01/19 08:32:28;;;;;;;33.37;23.03;;;;;;;;;;5111852;28;20201;-79
2024/01/19 08:34:56;;;;;;;34.27;22.60;;;;;;;;;;5111764;28;20195;-79
2024/01/19 08:37:23;;;;;;;29.27;21.43;;;;;;;;;;5111709;28;20314;-79
2024/01/19 08:39:51;;;;;;;28.77;19.57;;;;;;;;;;5111931;28;20210;-80
2024/01/19 08:42:18;;;;;;;28.03;19.67;;;;;;;;;;5111646;28;20667;-80
2024/01/19 08:44:46;;;;;;;24.67;16.27;;;;;;;;;;5112053;28;20240;-80
2024/01/19 08:47:14;;;;;;;19.37;13.17;;;;;;;;;;5111401;28;20298;-79
2024/01/19 08:49:43;;;;;;;21.87;14.70;;;;;;;;;;5111964;28;20200;-80
2024/01/19 08:52:10;;;;;;;23.40;14.27;;;;;;;;;;5111879;28;20256;-79
2024/01/19 08:54:37;;;;;;;25.17;17.00;;;;;;;;;;5112262;28;20240;-80
2024/01/19 08:57:05;;;;;;;19.47;13.63;;;;;;;;;;5111425;28;20313;-80
2024/01/19 08:59:33;;;;;;;17.77;13.40;;;;;;;;;;5111458;28;20194;-80
2024/01/19 09:02:01;;;;;;;18.37;14.23;;;;;;;;;;5111306;28;20284;-81
2024/01/19 09:04:29;;;;;;;21.33;15.60;;;;;;;;;;5111504;28;20266;-80
2024/01/19 09:06:57;;;;;;;17.73;15.13;;;;;;;;;;5111910;28;20204;-80
2024/01/19 09:09:24;;;;;;;17.97;14.23;;;;;;;;;;5111442;28;20198;-81
2024/01/19 09:11:51;;;;;;;16.90;13.23;;;;;;;;;;5111449;28;20280;-81
2024/01/19 09:14:20;;;;;;;21.63;18.73;;;;;;;;;;5111491;28;20313;-80
2024/01/19 09:16:47;;;;;;;24.63;19.73;;;;;;;;;;5111242;28;20198;-80
2024/01/19 09:19:16;;;;;;;23.23;19.50;;;;;;;;;;5111546;28;20278;-81
2024/01/19 09:21:44;;;;;;;17.27;15.43;;;;;;;;;;5111893;28;20201;-80
2024/01/19 09:24:11;;;;;;;22.80;17.53;;;;;;;;;;5111472;28;20197;-81
2024/01/19 09:26:38;;;;;;;16.87;13.13;;;;;;;;;;5111498;28;20292;-80
2024/01/19 09:29:08;;;;;;;33.97;28.40;;;;;;;;;;5111492;28;20567;-80
2024/01/19 09:31:41;;;;;;;16.43;12.73;;;;;;;;;;5110975;28;20198;-80
2024/01/19 09:34:09;;;;;;;16.67;13.00;;;;;;;;;;5112198;28;20210;-81
2024/01/19 09:36:37;;;;;;;17.13;13.90;;;;;;;;;;5113509;28;20190;-80
2024/01/19 09:39:04;;;;;;;14.47;12.70;;;;;;;;;;5115221;28;20261;-81
2024/01/19 09:41:36;;;;;;;18.30;13.33;;;;;;;;;;5115197;27;20669;-81
2024/01/19 09:44:07;;;;;;;16.40;14.30;;;;;;;;;;5115293;28;20225;-81
2024/01/19 09:46:38;;;;;;;17.77;14.30;;;;;;;;;;5114906;28;20289;-80
2024/01/19 09:49:12;;;;;;;21.50;15.17;;;;;;;;;;5115124;28;20224;-81
2024/01/19 09:51:47;;;;;;;18.53;14.90;;;;;;;;;;5115521;28;20194;-81
2024/01/19 09:54:20;;;;;;;19.47;13.83;;;;;;;;;;5114922;28;20189;-81
2024/01/19 09:56:47;;;;;;;15.37;11.93;;;;;;;;;;5114911;28;20190;-81
2024/01/19 09:59:15;;;;;;;14.40;11.53;;;;;;;;;;5114621;28;20634;-81
2024/01/19 10:01:42;;;;;;;14.23;10.93;;;;;;;;;;5114858;28;20221;-81
2024/01/19 10:04:14;;;;;;;16.83;11.70;;;;;;;;;;5115019;27;20281;-81
2024/01/19 10:06:44;;;;;;;28.50;16.20;;;;;;;;;;5115097;28;20575;-81
2024/01/19 10:09:14;;;;;;;18.77;12.70;;;;;;;;;;5114842;28;20559;-80
2024/01/19 10:11:42;;;;;;;14.87;11.93;;;;;;;;;;5114717;28;20248;-81
2024/01/19 10:14:09;;;;;;;16.10;11.63;;;;;;;;;;5114006;28;20253;-81
2024/01/19 10:16:36;;;;;;;16.87;12.23;;;;;;;;;;5114712;28;20198;-81
2024/01/19 10:19:04;;;;;;;27.17;16.20;;;;;;;;;;5114530;27;20253;-81
2024/01/19 10:21:31;;;;;;;21.20;13.50;;;;;;;;;;5114391;28;20194;-82
2024/01/19 10:24:10;;;;;;;37.13;19.93;;;;;;;;;;5114193;28;20753;-81
2024/01/19 10:26:38;;;;;;;34.63;18.97;;;;;;;;;;5114002;28;20190;-81
2024/01/19 10:29:11;;;;;;;26.07;14.03;;;;;;;;;;5113785;28;20244;-82
2024/01/19 10:31:39;;;;;;;29.17;15.60;;;;;;;;;;5114341;28;20193;-82
2024/01/19 10:34:07;;;;;;;25.57;16.00;;;;;;;;;;5114458;28;20194;-82
2024/01/19 10:36:40;;;;;;;41.17;27.93;;;;;;;;;;5113948;28;20244;-82
2024/01/19 10:39:19;;;;;;;44.33;29.83;;;;;;;;;;5114462;28;20274;-82
2024/01/19 10:41:46;;;;;;;49.97;35.40;;;;;;;;;;5114100;28;20198;-81
2024/01/19 10:44:14;;;;;;;27.30;20.53;;;;;;;;;;5113878;28;20284;-81
2024/01/19 10:46:42;;;;;;;37.20;28.40;;;;;;;;;;5114295;28;20241;-82
2024/01/19 10:49:10;;;;;;;55.43;38.53;;;;;;;;;;5113220;28;20625;-82
2024/01/19 10:51:39;;;;;;;56.23;40.17;;;;;;;;;;5113665;28;20190;-82
2024/01/19 10:54:07;;;;;;;38.67;26.23;;;;;;;;;;5113661;28;20272;-81
2024/01/19 10:56:36;;;;;;;51.70;36.23;;;;;;;;;;5114095;28;20194;-82
2024/01/19 10:59:12;;;;;;;28.53;19.00;;;;;;;;;;5113365;28;20316;-81
2024/01/19 11:01:39;;;;;;;10.40;8.47;;;;;;;;;;5113765;28;20197;-80
2024/01/19 11:04:08;;;;;;;9.57;7.60;;;;;;;;;;5113814;28;20288;-81
2024/01/19 11:06:37;;;;;;;9.43;7.53;;;;;;;;;;5113070;28;20193;-82
2024/01/19 11:09:06;;;;;;;14.33;9.47;;;;;;;;;;5113502;28;20194;-81
2024/01/19 11:11:35;;;;;;;12.03;9.30;;;;;;;;;;5113599;28;20281;-80
2024/01/19 11:14:06;;;;;;;12.00;9.13;;;;;;;;;;5113076;28;20265;-81
2024/01/19 11:16:36;;;;;;;13.77;10.57;;;;;;;;;;5113361;28;20197;-81
2024/01/19 11:19:05;;;;;;;14.43;10.60;;;;;;;;;;5113194;28;20308;-82
2024/01/19 11:21:32;;;;;;;9.93;8.63;;;;;;;;;;5113238;28;20197;-82
2024/01/19 11:24:00;;;;;;;10.20;8.23;;;;;;;;;;5113331;28;20306;-82
2024/01/19 11:26:30;;;;;;;10.00;8.30;;;;;;;;;;5112802;28;20244;-81
2024/01/19 11:29:00;;;;;;;13.17;10.17;;;;;;;;;;5113346;28;20243;-81
2024/01/19 11:31:30;;;;;;;12.17;8.30;;;;;;;;;;5113175;28;20224;-81
2024/01/19 11:33:58;;;;;;;9.10;7.40;;;;;;;;;;5112820;28;20202;-82
2024/01/19 11:36:52;;;;;;;10.73;7.40;;;;;;;;;;5112523;28;20290;-81
2024/01/19 11:39:37;;;;;;;8.77;7.40;;;;;;;;;;5069796;28;20241;-81
2024/01/19 11:42:05;;;;;;;8.57;7.17;;;;;;;;;;5069580;28;20755;-81
2024/01/19 11:44:45;;;;;;;9.33;6.80;;;;;;;;;;5069984;28;20227;-81
2024/01/19 11:47:31;;;;;;;12.33;6.50;;;;;;;;;;5069616;28;20210;-82
2024/01/19 11:50:00;;;;;;;8.30;6.50;;;;;;;;;;5069795;28;20199;-81
2024/01/19 11:52:40;;;;;;;8.00;5.60;;;;;;;;;;5070082;28;20196;-81
2024/01/19 11:55:25;;;;;;;7.90;5.40;;;;;;;;;;5069657;28;20668;-82
2024/01/19 11:57:53;;;;;;;6.50;5.30;;;;;;;;;;5070089;28;20289;-81
2024/01/19 12:00:20;;;;;;;6.60;5.40;;;;;;;;;;5069550;28;20204;-81
2024/01/19 12:02:47;;;;;;;7.67;4.50;;;;;;;;;;5069603;28;20348;-82
2024/01/19 12:05:20;;;;;;;6.33;3.80;;;;;;;;;;5069155;28;20199;-81
2024/01/19 12:07:47;;;;;;;4.70;3.30;;;;;;;;;;5069721;28;20195;-82
2024/01/19 12:10:18;;;;;;;4.37;2.43;;;;;;;;;;5069721;28;20219;-81
2024/01/19 12:12:46;;;;;;;4.17;2.50;;;;;;;;;;5069318;28;20234;-82
2024/01/19 12:15:15;;;;;;;4.30;2.67;;;;;;;;;;5092674;28;20247;-81
2024/01/19 12:17:44;;;;;;;5.73;3.47;;;;;;;;;;5112150;28;20301;-82
2024/01/19 12:20:12;;;;;;;7.93;2.80;;;;;;;;;;5112166;28;20663;-81
2024/01/19 12:22:40;;;;;;;4.37;2.63;;;;;;;;;;5112237;28;20239;-81
2024/01/19 12:25:14;;;;;;;7.33;3.60;;;;;;;;;;5111894;28;20194;-82
2024/01/19 12:27:41;;;;;;;7.17;2.47;;;;;;;;;;5112277;28;20201;-82
2024/01/19 12:30:12;;;;;;;6.00;2.53;;;;;;;;;;5111935;28;20658;-82
2024/01/19 12:32:40;;;;;;;3.60;2.30;;;;;;;;;;5111929;28;20277;-82
2024/01/19 12:35:08;;;;;;;6.57;3.77;;;;;;;;;;5111929;28;20198;-82
2024/01/19 12:37:35;;;;;;;5.03;2.27;;;;;;;;;;5111876;28;20229;-81
2024/01/19 12:40:14;;;;;;;4.57;2.70;;;;;;;;;;5111570;28;20228;-81
2024/01/19 12:42:42;;;;;;;3.07;1.43;;;;;;;;;;5110691;28;20196;-82
2024/01/19 12:45:10;;;;;;;3.73;1.20;;;;;;;;;;5111623;28;20201;-82
2024/01/19 12:47:42;;;;;;;3.70;1.50;;;;;;;;;;5111848;28;20194;-82
2024/01/19 12:50:10;;;;;;;5.43;3.30;;;;;;;;;;5111709;28;20700;-81
2024/01/19 12:52:37;;;;;;;4.20;1.77;;;;;;;;;;5111838;28;20927;-82
2024/01/19 12:55:05;;;;;;;5.47;2.50;;;;;;;;;;5111259;28;20650;-82
2024/01/19 12:57:34;;;;;;;6.80;2.50;;;;;;;;;;5111668;28;20232;-81
2024/01/19 13:00:10;;;;;;;5.50;3.23;;;;;;;;;;5111968;28;20809;-81
2024/01/19 13:02:38;;;;;;;5.97;3.47;;;;;;;;;;5111483;28;20190;-82
2024/01/19 13:05:06;;;;;;;3.30;2.27;;;;;;;;;;5111969;28;20297;-81
2024/01/19 13:07:33;;;;;;;3.53;2.03;;;;;;;;;;5111829;28;20297;-82
2024/01/19 13:10:01;;;;;;;8.80;5.80;;;;;;;;;;5111544;28;20200;-80
2024/01/19 13:12:28;;;;;;;3.47;1.77;;;;;;;;;;5115043;28;20324;-81
2024/01/19 13:15:05;;;;;;;4.93;3.07;;;;;;;;;;5115944;28;20225;-81
2024/01/19 13:17:32;;;;;;;3.40;2.37;;;;;;;;;;5115527;28;20193;-82
2024/01/19 13:20:00;;;;;;;4.50;2.10;;;;;;;;;;5115493;28;20780;-82
2024/01/19 13:22:27;;;;;;;5.07;3.20;;;;;;;;;;5115395;28;20218;-80
2024/01/19 13:24:54;;;;;;;5.10;2.70;;;;;;;;;;5115559;28;20281;-82
2024/01/19 13:27:21;;;;;;;6.07;2.60;;;;;;;;;;5115810;28;20190;-82
2024/01/19 13:29:48;;;;;;;6.30;2.00;;;;;;;;;;5115248;28;20194;-81
2024/01/19 13:32:17;;;;;;;4.57;1.83;;;;;;;;;;5115843;28;20200;-82
2024/01/19 13:34:44;;;;;;;4.07;1.90;;;;;;;;;;5115427;28;20217;-82
2024/01/19 13:37:11;;;;;;;5.93;2.23;;;;;;;;;;5114523;28;20285;-82
2024/01/19 13:39:38;;;;;;;4.80;2.73;;;;;;;;;;5115480;28;20317;-81
2024/01/19 13:42:06;;;;;;;4.43;2.47;;;;;;;;;;5115338;28;20232;-82
2024/01/19 13:44:33;;;;;;;3.10;2.20;;;;;;;;;;5115382;28;20642;-82
2024/01/19 13:47:00;;;;;;;4.90;2.97;;;;;;;;;;5114861;28;20201;-81
2024/01/19 13:49:29;;;;;;;6.73;2.57;;;;;;;;;;5115341;28;20281;-82
2024/01/19 13:51:56;;;;;;;2.83;1.97;;;;;;;;;;5114676;28;20193;-82
2024/01/19 13:54:23;;;;;;;4.20;2.00;;;;;;;;;;5115166;27;20198;-82
2024/01/19 13:56:50;;;;;;;5.20;2.57;;;;;;;;;;5114943;28;20200;-81
2024/01/19 13:59:17;;;;;;;5.47;2.77;;;;;;;;;;5115010;28;20253;-83
2024/01/19 14:01:45;;;;;;;3.90;2.40;;;;;;;;;;5114809;28;20285;-82
2024/01/19 14:04:12;;;;;;;3.70;1.80;;;;;;;;;;5114717;28;20662;-83
2024/01/19 14:06:42;;;;;;;3.80;1.97;;;;;;;;;;5114413;28;20280;-82
2024/01/19 14:09:09;;;;;;;3.37;1.90;;;;;;;;;;5114750;28;20229;-82
2024/01/19 14:11:37;;;;;;;4.03;2.20;;;;;;;;;;5114956;27;20678;-82
2024/01/19 14:14:04;;;;;;;3.37;2.10;;;;;;;;;;5114342;28;20217;-82
2024/01/19 14:16:31;;;;;;;3.97;2.23;;;;;;;;;;5114517;28;20194;-82
2024/01/19 14:18:58;;;;;;;7.53;2.13;;;;;;;;;;5114484;28;20305;-82
2024/01/19 14:21:26;;;;;;;2.63;1.70;;;;;;;;;;5114258;28;20729;-82
2024/01/19 14:23:54;;;;;;;3.70;2.20;;;;;;;;;;5113212;28;20650;-82
2024/01/19 14:26:23;;;;;;;3.33;1.80;;;;;;;;;;5114425;28;20666;-82
2024/01/19 14:28:50;;;;;;;2.47;1.67;;;;;;;;;;5114609;28;20751;-82